Time;durP1;ratioP1;P1;durP2;ratioP2;P2;SDS_P1;SDS_P2;PMS_P1;PMS_P2;Temp;Humidity;BMP_temperature;BMP_pressure;BME280_temperature;BME280_humidity;BME280_pressure;Samples;Min_cycle;Max_cycle;Signal;HPM_P1;HPM_P2
2023/08/14 00:00:50;;;;;;;4.80;4.40;;;;;;;22.32;100.00;99723.25;5015629;28;20030;-84
2023/08/14 00:03:16;;;;;;;4.72;4.32;;;;;;;22.51;100.00;99748.91;5015869;28;20029;-84
2023/08/14 00:05:41;;;;;;;4.55;4.25;;;;;;;22.50;100.00;99736.63;5033481;28;20424;-84
2023/08/14 00:08:07;;;;;;;4.60;4.20;;;;;;;22.38;100.00;99719.22;5033670;28;20638;-84
2023/08/14 00:10:32;;;;;;;4.43;4.03;;;;;;;22.27;100.00;99695.50;5030251;28;20029;-84
2023/08/14 00:12:57;;;;;;;4.30;3.92;;;;;;;22.49;100.00;99745.53;5015443;28;20036;-84
2023/08/14 00:15:23;;;;;;;6.95;4.03;;;;;;;22.45;100.00;99736.19;5015596;28;20132;-84
2023/08/14 00:17:50;;;;;;;4.53;4.15;;;;;;;22.45;100.00;99752.13;5010674;28;20127;-84
2023/08/14 00:20:15;;;;;;;9.13;4.43;;;;;;;22.37;100.00;99746.69;5010953;28;20045;-83
2023/08/14 00:22:41;;;;;;;5.07;4.28;;;;;;;22.38;100.00;99756.34;5010860;28;20041;-83
2023/08/14 00:25:06;;;;;;;4.25;3.88;;;;;;;22.28;100.00;99739.59;5010770;28;20264;-84
2023/08/14 00:27:32;;;;;;;4.47;4.07;;;;;;;22.41;100.00;99761.34;5010897;28;20034;-84
2023/08/14 00:29:57;;;;;;;4.43;4.03;;;;;;;22.32;100.00;99755.09;5010716;28;20081;-84
2023/08/14 00:32:22;;;;;;;6.25;4.30;;;;;;;22.28;100.00;99743.09;5010823;28;20104;-84
2023/08/14 00:34:48;;;;;;;4.43;4.05;;;;;;;22.22;100.00;99742.84;4994067;28;20052;-83
2023/08/14 00:37:13;;;;;;;4.47;3.90;;;;;;;22.21;100.00;99733.22;4994244;28;20042;-83
2023/08/14 00:39:38;;;;;;;4.72;4.25;;;;;;;22.25;100.00;99748.72;5010732;28;20076;-83
2023/08/14 00:42:04;;;;;;;4.82;4.32;;;;;;;22.27;100.00;99746.75;5010386;28;20033;-84
2023/08/14 00:44:30;;;;;;;5.80;4.43;;;;;;;22.16;100.00;99741.59;5010806;28;20038;-83
2023/08/14 00:46:56;;;;;;;4.75;4.28;;;;;;;22.27;100.00;99754.69;5010340;28;20105;-84
2023/08/14 00:49:22;;;;;;;5.10;4.60;;;;;;;22.25;100.00;99763.75;5026326;28;20049;-83
2023/08/14 00:51:47;;;;;;;6.95;5.22;;;;;;;22.06;100.00;99738.94;5014993;28;20549;-83
2023/08/14 00:54:13;;;;;;;5.13;4.63;;;;;;;22.21;100.00;99767.72;5032749;28;20113;-83
2023/08/14 00:56:38;;;;;;;5.10;4.63;;;;;;;22.21;100.00;99771.19;5032036;28;20029;-83
2023/08/14 00:59:03;;;;;;;5.18;4.68;;;;;;;22.19;100.00;99759.88;5032047;28;20029;-83
2023/08/14 01:01:29;;;;;;;7.35;5.07;;;;;;;22.20;100.00;99768.66;5032839;28;20029;-83
2023/08/14 01:03:54;;;;;;;4.78;4.38;;;;;;;22.07;100.00;99758.34;5032254;28;20515;-83
2023/08/14 01:06:20;;;;;;;5.18;4.68;;;;;;;22.11;100.00;99765.88;5032380;28;20028;-84
2023/08/14 01:08:46;;;;;;;4.60;4.20;;;;;;;22.14;100.00;99776.22;5014841;28;20060;-84
2023/08/14 01:11:15;;;;;;;6.00;5.40;;;;;;;22.14;100.00;99773.56;5032028;28;20029;-83
2023/08/14 01:13:53;;;;;;;6.15;4.55;;;;;;;22.08;100.00;99760.00;5032622;28;20108;-83
2023/08/14 01:16:24;;;;;;;5.50;4.60;;;;;;;22.10;100.00;99766.84;5014536;28;20029;-83
2023/08/14 01:18:51;;;;;;;5.38;4.88;;;;;;;22.00;100.00;99752.78;5014599;28;20057;-83
2023/08/14 01:21:17;;;;;;;4.80;4.40;;;;;;;22.11;100.00;99765.88;5032280;28;20485;-83
2023/08/14 01:24:02;;;;;;;5.93;5.22;;;;;;;21.96;100.00;99756.69;5032213;28;20045;-84
2023/08/14 01:26:28;;;;;;;5.82;5.25;;;;;;;22.06;100.00;99770.75;5032225;28;20034;-83
2023/08/14 01:28:55;;;;;;;5.22;4.72;;;;;;;21.92;100.00;99750.84;5031744;28;20389;-84
2023/08/14 01:31:20;;;;;;;5.03;4.53;;;;;;;21.97;100.00;99765.47;5031857;28;20030;-83
2023/08/14 01:33:46;;;;;;;5.28;4.75;;;;;;;22.00;100.00;99765.22;5032158;28;20036;-83
2023/08/14 01:36:13;;;;;;;6.07;4.85;;;;;;;21.78;100.00;99721.25;5032126;28;20037;-83
2023/08/14 01:38:55;;;;;;;5.95;5.32;;;;;;;21.91;100.00;99750.94;5032053;28;20029;-83
2023/08/14 01:41:35;;;;;;;5.40;4.90;;;;;;;21.93;100.00;99756.97;5031939;28;20033;-83
2023/08/14 01:44:07;;;;;;;5.65;5.15;;;;;;;21.67;100.00;99728.38;5031874;28;20030;-83
2023/08/14 01:46:34;;;;;;;5.20;4.72;;;;;;;21.72;100.00;99746.53;5031989;28;20021;-83
2023/08/14 01:49:02;;;;;;;6.50;4.80;;;;;;;21.74;100.00;99749.03;5013736;28;20084;-83
2023/08/14 01:51:29;;;;;;;5.30;4.80;;;;;;;21.74;100.00;99751.66;5031726;28;20066;-83
2023/08/14 01:53:55;;;;;;;5.65;5.03;;;;;;;21.73;100.00;99757.97;5031571;28;20021;-83
2023/08/14 01:56:20;;;;;;;7.25;4.90;;;;;;;21.65;100.00;99750.69;5031964;28;20105;-83
2023/08/14 01:58:45;;;;;;;5.63;5.10;;;;;;;21.68;100.00;99748.59;5031927;28;20456;-83
2023/08/14 02:01:11;;;;;;;5.68;5.00;;;;;;;21.55;100.00;99729.50;5031689;28;20040;-83
2023/08/14 02:03:36;;;;;;;5.95;5.35;;;;;;;21.48;100.00;99728.38;5031825;28;20431;-83
2023/08/14 02:06:02;;;;;;;5.45;4.95;;;;;;;21.47;100.00;99742.63;5031808;28;20030;-83
2023/08/14 02:08:27;;;;;;;5.53;4.97;;;;;;;21.45;100.00;99754.31;5017585;28;20032;-83
2023/08/14 02:10:52;;;;;;;7.80;5.30;;;;;;;21.46;100.00;99750.72;5035606;28;20116;-83
2023/08/14 02:13:18;;;;;;;5.40;4.93;;;;;;;21.40;100.00;99749.44;5035504;28;20482;-84
2023/08/14 02:15:46;;;;;;;5.72;5.22;;;;;;;21.37;100.00;99739.97;4974170;28;20066;-83
2023/08/14 02:18:13;;;;;;;6.30;5.70;;;;;;;21.21;100.00;99722.91;4958006;28;20125;-84
2023/08/14 02:20:46;;;;;;;6.15;5.65;;;;;;;21.27;100.00;99733.78;4974441;28;20143;-84
2023/08/14 02:23:11;;;;;;;5.68;5.18;;;;;;;21.23;100.00;99735.03;4974094;28;20067;-84
2023/08/14 02:25:41;;;;;;;6.72;6.00;;;;;;;21.26;100.00;99744.50;4974187;28;20126;-84
2023/08/14 02:28:06;;;;;;;8.63;5.78;;;;;;;21.10;100.00;99729.16;4957694;28;20410;-83
2023/08/14 02:30:31;;;;;;;6.03;5.43;;;;;;;21.07;100.00;99734.72;4957881;28;20050;-84
2023/08/14 02:32:57;;;;;;;5.75;5.25;;;;;;;21.08;100.00;99733.75;4973730;28;20113;-84
2023/08/14 02:35:22;;;;;;;5.82;5.32;;;;;;;21.12;100.00;99746.59;4973963;28;20035;-84
2023/08/14 02:37:47;;;;;;;6.00;5.50;;;;;;;21.06;100.00;99733.03;4973941;28;20027;-83
2023/08/14 02:40:13;;;;;;;6.40;5.80;;;;;;;21.20;100.00;99759.16;4973678;28;20121;-84
2023/08/14 02:42:38;;;;;;;6.40;5.82;;;;;;;21.14;100.00;99749.94;4973875;28;20070;-83
2023/08/14 02:45:04;;;;;;;6.47;5.85;;;;;;;21.07;100.00;99727.63;4973599;28;20394;-83
2023/08/14 02:47:29;;;;;;;6.32;5.72;;;;;;;21.09;100.00;99714.25;5006566;28;20045;-83
2023/08/14 02:49:55;;;;;;;6.35;5.68;;;;;;;21.11;100.00;99718.44;5034989;28;20111;-83
2023/08/14 02:52:20;;;;;;;6.50;5.90;;;;;;;21.21;100.00;99739.63;5016646;28;20026;-84
2023/08/14 02:54:45;;;;;;;6.35;5.68;;;;;;;21.23;100.00;99742.97;5017246;28;20121;-83
2023/08/14 02:57:11;;;;;;;5.85;5.35;;;;;;;21.22;100.00;99736.00;5034732;28;20056;-83
2023/08/14 02:59:36;;;;;;;6.18;5.65;;;;;;;21.09;100.00;99719.53;5034899;28;20030;-84
2023/08/14 03:02:01;;;;;;;6.85;5.43;;;;;;;21.15;100.00;99737.50;5034569;28;20091;-84
2023/08/14 03:04:29;;;;;;;7.75;6.22;;;;;;;21.20;100.00;99745.09;5034726;28;20595;-84
2023/08/14 03:06:55;;;;;;;6.03;5.43;;;;;;;21.16;100.00;99732.09;5016736;28;20120;-84
2023/08/14 03:09:20;;;;;;;6.22;5.72;;;;;;;21.13;100.00;99729.72;5016773;28;20120;-83
2023/08/14 03:11:45;;;;;;;7.00;5.82;;;;;;;21.13;100.00;99728.88;5034600;28;20469;-83
2023/08/14 03:14:11;;;;;;;6.50;6.00;;;;;;;21.10;100.00;99723.84;5034696;28;20382;-84
2023/08/14 03:16:36;;;;;;;5.95;5.45;;;;;;;21.00;100.00;99707.13;5034790;28;20462;-84
2023/08/14 03:19:02;;;;;;;6.57;5.97;;;;;;;21.12;100.00;99728.06;5033520;28;20450;-84
2023/08/14 03:21:27;;;;;;;6.22;5.63;;;;;;;21.05;100.00;99724.25;5034251;28;20496;-83
2023/08/14 03:23:52;;;;;;;6.88;5.57;;;;;;;21.06;100.00;99731.22;5016729;28;20037;-83
2023/08/14 03:26:18;;;;;;;6.22;5.55;;;;;;;20.93;100.00;99712.94;5034248;28;20491;-83
2023/08/14 03:28:43;;;;;;;7.22;5.75;;;;;;;20.97;100.00;99721.47;5034386;28;20072;-84
2023/08/14 03:31:09;;;;;;;5.72;5.18;;;;;;;21.01;100.00;99741.41;5033885;28;20026;-83
2023/08/14 03:33:34;;;;;;;6.32;5.30;;;;;;;20.85;100.00;99712.78;5034066;28;20530;-84
2023/08/14 03:36:00;;;;;;;6.00;5.40;;;;;;;20.92;100.00;99735.09;5033806;28;20026;-84
2023/08/14 03:38:25;;;;;;;6.22;5.63;;;;;;;20.90;100.00;99736.25;5016557;28;20033;-84
2023/08/14 03:40:50;;;;;;;5.75;5.18;;;;;;;20.91;100.00;99736.09;5034326;28;20021;-84
2023/08/14 03:43:16;;;;;;;5.40;4.90;;;;;;;20.91;100.00;99744.03;5016048;28;20128;-82
2023/08/14 03:45:41;;;;;;;5.88;5.30;;;;;;;20.93;100.00;99744.72;5034024;28;20167;-83
2023/08/14 03:48:06;;;;;;;6.57;5.97;;;;;;;20.84;100.00;99736.75;5015911;28;20091;-83
2023/08/14 03:50:32;;;;;;;6.70;6.10;;;;;;;20.83;100.00;99740.38;5015752;28;20080;-83
2023/08/14 03:52:57;;;;;;;5.70;5.20;;;;;;;20.91;100.00;99754.63;5015878;28;20045;-83
2023/08/14 03:55:22;;;;;;;6.47;5.70;;;;;;;20.92;100.00;99751.00;5033671;28;20036;-83
2023/08/14 03:57:48;;;;;;;7.78;7.00;;;;;;;20.81;100.00;99729.06;5033835;28;20457;-83
2023/08/14 04:00:13;;;;;;;6.38;5.78;;;;;;;20.89;100.00;99756.56;5033821;28;20021;-83
2023/08/14 04:02:39;;;;;;;8.35;5.60;;;;;;;20.68;100.00;99739.91;5033702;28;20029;-83
2023/08/14 04:05:05;;;;;;;6.60;5.07;;;;;;;20.84;100.00;99766.72;5033321;28;20025;-83
2023/08/14 04:07:30;;;;;;;5.75;5.25;;;;;;;20.76;100.00;99733.94;5033374;28;20112;-83
2023/08/14 04:09:56;;;;;;;6.85;5.35;;;;;;;20.98;100.00;99756.72;5015946;28;20079;-83
2023/08/14 04:12:21;;;;;;;6.32;5.72;;;;;;;21.08;100.00;99763.72;5033219;28;20036;-83
2023/08/14 04:14:49;;;;;;;6.60;5.80;;;;;;;21.31;100.00;99763.47;5015685;28;20527;-83
2023/08/14 04:17:14;;;;;;;6.22;5.63;;;;;;;21.59;100.00;99743.31;5015281;28;20120;-83
2023/08/14 04:19:39;;;;;;;7.25;5.65;;;;;;;22.34;100.00;99758.47;5033305;28;20030;-83
2023/08/14 04:22:05;;;;;;;8.48;5.80;;;;;;;22.94;100.00;99749.28;5032912;28;20036;-83
2023/08/14 04:24:30;;;;;;;6.50;5.00;;;;;;;23.16;100.00;99740.91;5033290;28;20035;-83
2023/08/14 04:26:56;;;;;;;6.18;5.70;;;;;;;23.31;100.00;99784.59;5033254;28;20045;-83
2023/08/14 04:29:21;;;;;;;6.13;5.60;;;;;;;23.18;100.00;99770.84;5015054;28;20029;-83
2023/08/14 04:31:47;;;;;;;5.95;5.43;;;;;;;23.12;100.00;99772.25;5032081;28;20025;-83
2023/08/14 04:34:13;;;;;;;7.25;5.50;;;;;;;23.06;100.00;99764.03;5014948;28;20030;-83
2023/08/14 04:36:38;;;;;;;6.40;5.20;;;;;;;22.74;100.00;99721.97;5032866;28;20104;-83
2023/08/14 04:39:04;;;;;;;5.35;4.88;;;;;;;23.12;100.00;99771.41;5033059;28;20453;-83
2023/08/14 04:41:30;;;;;;;6.05;5.47;;;;;;;23.06;100.00;99748.13;5033711;28;20119;-83
2023/08/14 04:43:56;;;;;;;5.45;4.90;;;;;;;22.99;100.00;99745.19;5032942;28;20623;-83
2023/08/14 04:46:38;;;;;;;5.50;5.00;;;;;;;23.04;100.00;99764.19;5032513;28;20108;-83
2023/08/14 04:49:04;;;;;;;6.32;5.30;;;;;;;22.99;100.00;99785.03;5032517;28;20477;-83
2023/08/14 04:51:30;;;;;;;6.15;4.90;;;;;;;22.88;100.00;99772.78;5015054;28;20026;-83
2023/08/14 04:53:58;;;;;;;5.97;5.40;;;;;;;22.79;100.00;99778.13;5032905;28;20065;-83
2023/08/14 04:56:24;;;;;;;5.68;5.22;;;;;;;22.64;100.00;99772.47;5032603;28;20032;-83
2023/08/14 04:58:50;;;;;;;5.68;5.18;;;;;;;22.49;100.00;99750.03;5033001;28;20029;-83
2023/08/14 05:01:15;;;;;;;5.93;5.13;;;;;;;22.55;100.00;99773.34;5032349;28;20029;-83
2023/08/14 05:03:41;;;;;;;7.53;5.85;;;;;;;22.53;100.00;99773.47;5032386;28;20037;-83
2023/08/14 05:06:06;;;;;;;6.53;5.93;;;;;;;22.65;100.00;99795.38;5032400;28;20108;-83
2023/08/14 05:08:32;;;;;;;7.55;6.30;;;;;;;22.61;100.00;99789.50;5014789;28;20032;-83
2023/08/14 05:10:57;;;;;;;6.05;5.50;;;;;;;22.52;100.00;99769.16;5014736;28;20108;-83
2023/08/14 05:13:23;;;;;;;6.10;5.50;;;;;;;22.74;100.00;99793.66;5014374;28;20029;-83
2023/08/14 05:15:51;;;;;;;6.50;5.90;;;;;;;22.71;100.00;99770.88;5032258;28;20053;-83
2023/08/14 05:18:17;;;;;;;6.30;5.70;;;;;;;22.91;100.00;99801.72;5031970;28;20037;-83
2023/08/14 05:20:43;;;;;;;8.52;5.38;;;;;;;22.89;100.00;99786.91;5032414;28;20026;-83
2023/08/14 05:23:09;;;;;;;6.20;5.65;;;;;;;22.88;100.00;99767.47;5014354;28;20029;-83
2023/08/14 05:25:35;;;;;;;6.53;5.88;;;;;;;23.06;100.00;99788.78;5032263;28;20117;-83
2023/08/14 05:28:00;;;;;;;6.07;5.47;;;;;;;23.61;100.00;99785.22;5032207;28;20475;-83
2023/08/14 05:30:25;;;;;;;6.55;5.88;;;;;;;23.97;100.00;99790.53;5014203;28;20453;-83
2023/08/14 05:32:51;;;;;;;6.35;5.75;;;;;;;23.98;100.00;99774.44;5031916;28;20123;-83
2023/08/14 05:35:16;;;;;;;6.65;5.40;;;;;;;24.27;100.00;99802.56;5031968;28;20480;-82
2023/08/14 05:37:42;;;;;;;6.65;5.82;;;;;;;24.35;100.00;99800.78;5032143;28;20033;-83
2023/08/14 05:40:10;;;;;;;6.03;5.53;;;;;;;24.28;100.00;99797.09;5031868;28;20029;-83
2023/08/14 05:42:36;;;;;;;7.75;5.90;;;;;;;24.21;100.00;99780.06;5031667;28;20033;-83
2023/08/14 05:45:01;;;;;;;6.10;5.43;;;;;;;24.25;100.00;99780.59;5032235;28;20460;-83
2023/08/14 05:47:27;;;;;;;6.00;5.40;;;;;;;24.26;100.00;99784.94;5031602;28;20032;-83
2023/08/14 05:49:52;;;;;;;6.13;5.57;;;;;;;24.38;100.00;99797.03;5010650;28;20057;-83
2023/08/14 05:52:17;;;;;;;6.65;5.47;;;;;;;24.36;100.00;99797.16;5012015;28;20516;-83
2023/08/14 05:54:43;;;;;;;5.85;5.30;;;;;;;24.25;100.00;99781.44;5012258;28;20534;-83
2023/08/14 05:57:08;;;;;;;6.78;5.55;;;;;;;24.43;100.00;99800.03;5012118;28;20022;-83
2023/08/14 05:59:33;;;;;;;8.23;5.82;;;;;;;24.47;100.00;99805.91;5012138;28;20033;-83
2023/08/14 06:01:59;;;;;;;6.45;5.85;;;;;;;24.36;100.00;99801.66;5011974;28;20025;-83
2023/08/14 06:04:26;;;;;;;5.72;5.22;;;;;;;24.50;100.00;99811.75;5010743;28;20155;-83
2023/08/14 06:06:51;;;;;;;5.57;5.18;;;;;;;24.52;100.00;99792.94;5010862;28;20491;-83
2023/08/14 06:09:17;;;;;;;5.50;5.00;;;;;;;24.66;100.00;99815.50;5010590;28;20069;-83
2023/08/14 06:11:43;;;;;;;5.32;4.85;;;;;;;24.67;100.00;99802.03;5012012;28;20045;-83
2023/08/14 06:14:08;;;;;;;5.78;5.20;;;;;;;24.76;100.00;99833.03;5012346;28;20108;-83
2023/08/14 06:16:33;;;;;;;6.07;5.00;;;;;;;24.77;100.00;99816.03;5011991;28;20034;-83
2023/08/14 06:18:59;;;;;;;5.22;4.82;;;;;;;24.95;100.00;99823.97;5012154;28;20030;-83
2023/08/14 06:21:24;;;;;;;5.57;5.07;;;;;;;25.16;100.00;99828.06;5008964;28;20125;-83
2023/08/14 06:23:49;;;;;;;5.45;5.03;;;;;;;25.45;100.00;99809.88;5009485;28;20046;-83
2023/08/14 06:26:15;;;;;;;6.53;5.25;;;;;;;26.08;100.00;99843.97;5009570;28;20038;-83
2023/08/14 06:28:40;;;;;;;5.72;5.30;;;;;;;26.49;100.00;99827.09;5009466;28;20065;-83
2023/08/14 06:31:05;;;;;;;4.80;4.40;;;;;;;27.07;96.40;99850.81;5009382;28;20108;-82
2023/08/14 06:33:31;;;;;;;6.18;4.95;;;;;;;27.50;93.21;99845.13;5009095;28;20046;-83
2023/08/14 06:35:56;;;;;;;5.22;4.72;;;;;;;27.93;91.59;99842.88;5009306;28;20037;-83
2023/08/14 06:38:21;;;;;;;4.68;3.90;;;;;;;28.28;88.65;99834.22;5009080;28;20030;-83
2023/08/14 06:40:47;;;;;;;4.80;4.38;;;;;;;28.60;87.70;99825.03;5009318;28;20022;-83
2023/08/14 06:43:12;;;;;;;4.10;3.70;;;;;;;29.11;85.68;99844.94;5008883;28;20041;-83
2023/08/14 06:45:37;;;;;;;5.00;3.97;;;;;;;29.25;83.21;99823.47;4992702;28;20038;-83
2023/08/14 06:48:03;;;;;;;4.65;3.97;;;;;;;29.68;81.76;99841.53;5009203;28;20034;-83
2023/08/14 06:50:28;;;;;;;4.07;3.78;;;;;;;30.03;82.14;99827.19;5008755;28;20061;-83
2023/08/14 06:52:54;;;;;;;3.75;3.45;;;;;;;30.35;80.28;99827.69;5009173;28;20034;-83
2023/08/14 06:55:20;;;;;;;3.70;3.40;;;;;;;30.71;76.49;99846.34;4992255;28;20468;-83
2023/08/14 06:57:46;;;;;;;4.53;3.80;;;;;;;31.04;76.40;99843.03;4993005;28;20121;-83
2023/08/14 07:00:14;;;;;;;4.22;3.72;;;;;;;31.27;75.55;99832.78;4992963;28;20070;-83
2023/08/14 07:02:40;;;;;;;4.57;4.18;;;;;;;31.72;75.45;99843.91;4992959;28;20040;-83
2023/08/14 07:05:08;;;;;;;4.90;3.60;;;;;;;31.95;74.12;99822.03;4992993;28;20050;-83
2023/08/14 07:07:34;;;;;;;3.67;3.38;;;;;;;32.38;73.53;99827.00;4992706;28;20491;-83
2023/08/14 07:09:59;;;;;;;4.35;3.95;;;;;;;32.79;70.68;99832.13;4992874;28;20046;-83
2023/08/14 07:12:24;;;;;;;4.15;3.75;;;;;;;33.20;70.81;99835.53;4992472;28;20030;-83
2023/08/14 07:14:50;;;;;;;4.35;3.95;;;;;;;33.78;70.52;99859.75;4992704;28;20041;-83
2023/08/14 07:17:15;;;;;;;4.07;3.70;;;;;;;34.40;68.63;99849.13;4992816;28;20037;-83
2023/08/14 07:19:40;;;;;;;4.80;3.80;;;;;;;35.07;66.15;99860.16;4992804;28;20038;-83
2023/08/14 07:22:06;;;;;;;3.88;3.58;;;;;;;35.98;64.67;99859.16;4992647;28;20070;-83
2023/08/14 07:24:31;;;;;;;3.78;3.47;;;;;;;36.85;62.46;99858.50;4992382;28;20502;-83
2023/08/14 07:26:57;;;;;;;3.83;3.53;;;;;;;37.74;61.49;99871.72;5008781;28;20034;-84
2023/08/14 07:29:23;;;;;;;4.15;3.83;;;;;;;38.37;59.00;99874.22;5014269;28;20026;-83
2023/08/14 07:31:48;;;;;;;4.22;3.83;;;;;;;38.87;57.92;99869.78;5014396;28;20030;-84
2023/08/14 07:34:14;;;;;;;3.90;3.60;;;;;;;39.26;57.34;99870.56;5013298;28;20030;-85
2023/08/14 07:36:39;;;;;;;3.70;3.40;;;;;;;39.61;56.72;99866.56;5014091;28;20041;-86
2023/08/14 07:39:05;;;;;;;4.10;3.70;;;;;;;39.92;55.58;99854.91;5013072;28;20072;-86
2023/08/14 07:41:30;;;;;;;4.95;4.05;;;;;;;40.10;54.94;99864.63;5012772;28;20504;-84
2023/08/14 07:43:55;;;;;;;3.80;3.50;;;;;;;40.67;55.17;99851.38;5014427;28;20393;-84
2023/08/14 07:46:21;;;;;;;4.65;4.25;;;;;;;41.23;54.23;99852.50;5014159;28;20042;-84
2023/08/14 07:48:46;;;;;;;3.58;3.38;;;;;;;41.51;53.17;99853.97;5015485;28;20022;-85
2023/08/14 07:51:12;;;;;;;3.88;3.67;;;;;;;41.59;53.01;99858.91;5033858;28;20496;-84
2023/08/14 07:53:37;;;;;;;3.67;3.40;;;;;;;41.56;53.35;99858.63;5033571;28;20045;-84
2023/08/14 07:56:03;;;;;;;4.65;4.15;;;;;;;41.66;53.41;99855.88;5016000;28;20530;-84
2023/08/14 07:58:28;;;;;;;4.20;3.80;;;;;;;41.81;52.10;99849.66;4972039;28;20479;-85
2023/08/14 08:00:54;;;;;;;4.80;3.80;;;;;;;41.30;51.88;99852.25;4972451;28;20039;-84
2023/08/14 08:03:19;;;;;;;4.22;3.90;;;;;;;41.14;52.27;99846.72;4972231;28;20051;-84
2023/08/14 08:05:44;;;;;;;4.35;3.95;;;;;;;41.33;52.95;99857.16;4972138;28;20058;-85
2023/08/14 08:08:10;;;;;;;4.18;3.78;;;;;;;41.57;53.01;99852.06;4972374;28;20110;-84
2023/08/14 08:10:36;;;;;;;5.25;3.75;;;;;;;41.66;52.22;99853.16;4972031;28;20035;-85
2023/08/14 08:13:02;;;;;;;4.85;3.45;;;;;;;41.71;52.39;99855.88;4972111;28;20065;-85
2023/08/14 08:15:28;;;;;;;4.28;3.60;;;;;;;41.53;52.10;99854.50;4971835;28;20030;-85
2023/08/14 08:17:54;;;;;;;4.18;3.75;;;;;;;41.00;52.13;99845.56;4972111;28;20521;-85
2023/08/14 08:20:19;;;;;;;4.30;3.90;;;;;;;40.23;53.23;99860.63;4971870;28;20117;-85
2023/08/14 08:22:45;;;;;;;4.63;4.22;;;;;;;38.97;54.04;99859.00;4972034;28;20113;-85
2023/08/14 08:25:10;;;;;;;6.35;4.35;;;;;;;37.79;55.83;99839.19;4972022;28;20501;-84
2023/08/14 08:27:35;;;;;;;4.55;4.15;;;;;;;36.95;58.57;99840.56;4955592;28;20490;-85
2023/08/14 08:30:02;;;;;;;4.00;3.70;;;;;;;36.35;60.17;99840.81;4971832;28;20051;-84
2023/08/14 08:32:27;;;;;;;4.30;3.90;;;;;;;35.67;60.55;99844.78;4955381;28;20031;-84
2023/08/14 08:34:53;;;;;;;4.35;3.95;;;;;;;35.02;62.42;99831.06;4960250;28;20037;-85
2023/08/14 08:37:19;;;;;;;4.38;3.97;;;;;;;34.72;63.94;99850.72;5032698;28;20499;-85
2023/08/14 08:39:44;;;;;;;4.32;3.92;;;;;;;34.28;64.83;99822.00;5015128;28;20051;-84
2023/08/14 08:42:10;;;;;;;4.72;4.13;;;;;;;34.06;65.48;99829.69;5015107;28;20469;-84
2023/08/14 08:44:38;;;;;;;4.43;4.03;;;;;;;33.82;65.70;99828.56;5014723;28;20510;-85
2023/08/14 08:47:11;;;;;;;4.85;4.35;;;;;;;33.54;65.99;99845.16;5015233;28;20124;-85
2023/08/14 08:49:36;;;;;;;4.38;4.07;;;;;;;33.30;66.86;99835.09;5014661;28;20038;-84
2023/08/14 08:52:05;;;;;;;4.78;4.38;;;;;;;33.01;66.53;99815.69;5032712;28;20082;-84
2023/08/14 08:54:31;;;;;;;4.70;4.30;;;;;;;32.90;67.35;99821.72;5032397;28;20029;-85
2023/08/14 08:56:59;;;;;;;4.32;4.00;;;;;;;32.89;67.64;99831.69;5014817;28;20037;-85
2023/08/14 08:59:26;;;;;;;4.68;4.22;;;;;;;32.75;66.86;99822.81;5032260;28;20028;-84
2023/08/14 09:01:52;;;;;;;4.10;3.80;;;;;;;32.70;67.52;99829.84;5014899;28;20037;-85
2023/08/14 09:04:17;;;;;;;4.82;4.43;;;;;;;32.54;67.15;99821.19;5014825;28;20021;-85
2023/08/14 09:06:44;;;;;;;4.03;3.72;;;;;;;32.27;65.83;99824.91;5032233;28;20036;-85
2023/08/14 09:09:11;;;;;;;4.50;4.10;;;;;;;31.93;67.30;99809.78;5014762;28;20021;-85
2023/08/14 09:11:37;;;;;;;4.95;3.97;;;;;;;31.59;68.46;99805.38;5014205;28;20025;-85
2023/08/14 09:14:03;;;;;;;4.40;3.80;;;;;;;31.51;70.31;99815.28;5030999;28;20358;-86
2023/08/14 09:16:28;;;;;;;5.22;4.65;;;;;;;31.36;70.72;99785.03;5030652;28;20028;-85
2023/08/14 09:18:58;;;;;;;5.32;4.75;;;;;;;31.42;70.19;99810.28;5031777;28;20026;-85
2023/08/14 09:21:25;;;;;;;4.97;4.07;;;;;;;31.23;70.23;99803.81;5030856;28;20108;-86
2023/08/14 09:23:51;;;;;;;4.00;3.65;;;;;;;30.97;70.57;99788.38;5012915;28;20387;-86
2023/08/14 09:26:18;;;;;;;4.10;3.80;;;;;;;31.07;71.57;99813.06;5030681;28;20029;-85
2023/08/14 09:28:43;;;;;;;4.20;3.85;;;;;;;30.99;70.81;99805.97;5031201;28;20021;-86
2023/08/14 09:31:11;;;;;;;4.10;3.70;;;;;;;30.94;70.81;99818.38;5032336;28;20060;-82
2023/08/14 09:33:38;;;;;;;3.80;3.50;;;;;;;31.00;72.32;99825.63;5031475;28;20036;-82
2023/08/14 09:36:03;;;;;;;4.13;3.70;;;;;;;31.06;71.74;99822.16;5031267;28;20063;-82
2023/08/14 09:38:30;;;;;;;4.45;4.05;;;;;;;31.10;70.67;99811.78;5031772;28;20056;-82
2023/08/14 09:40:59;;;;;;;3.95;3.65;;;;;;;30.88;69.98;99776.13;5031933;28;20104;-82
2023/08/14 09:43:26;;;;;;;4.72;3.83;;;;;;;30.85;70.53;99800.75;5014057;28;20407;-82
2023/08/14 09:46:00;;;;;;;4.45;3.67;;;;;;;30.88;71.05;99797.63;5014327;28;20030;-82
2023/08/14 09:48:46;;;;;;;6.30;3.88;;;;;;;31.00;69.05;99822.94;5031737;28;20025;-82
2023/08/14 09:51:13;;;;;;;5.05;3.60;;;;;;;30.90;69.71;99801.81;5031753;28;20061;-82
2023/08/14 09:53:57;;;;;;;4.82;3.42;;;;;;;31.14;70.66;99811.22;5031701;28;20057;-82
2023/08/14 09:56:23;;;;;;;5.35;3.50;;;;;;;31.34;70.76;99821.25;5031841;28;20025;-82
2023/08/14 09:58:50;;;;;;;4.20;3.90;;;;;;;31.44;70.03;99802.88;5031892;28;20033;-82
2023/08/14 10:01:17;;;;;;;4.20;3.83;;;;;;;31.61;70.55;99812.22;5014132;28;20079;-82
2023/08/14 10:03:42;;;;;;;4.10;3.72;;;;;;;31.67;69.96;99800.63;5013850;28;20452;-82
2023/08/14 10:06:11;;;;;;;8.13;3.90;;;;;;;31.48;69.25;99772.63;5032054;28;20064;-82
2023/08/14 10:08:39;;;;;;;4.07;3.67;;;;;;;31.57;68.74;99792.13;5031625;28;20029;-83
2023/08/14 10:11:05;;;;;;;4.20;3.80;;;;;;;31.51;68.83;99795.63;5031763;28;20021;-83
2023/08/14 10:13:35;;;;;;;3.70;3.40;;;;;;;31.54;69.73;99789.81;5031408;28;20362;-83
2023/08/14 10:16:04;;;;;;;4.57;3.47;;;;;;;31.69;70.18;99805.78;5013918;28;20026;-83
2023/08/14 10:18:33;;;;;;;4.40;4.00;;;;;;;31.66;70.06;99798.13;5013599;28;20137;-83
2023/08/14 10:21:01;;;;;;;4.05;3.75;;;;;;;31.55;67.84;99792.31;5013928;28;20472;-83
2023/08/14 10:23:28;;;;;;;4.25;3.95;;;;;;;31.58;69.83;99790.25;5031413;28;20033;-83
2023/08/14 10:25:54;;;;;;;3.95;3.65;;;;;;;31.69;70.01;99797.69;5031493;28;20472;-83
2023/08/14 10:28:20;;;;;;;6.28;4.28;;;;;;;31.68;69.23;99783.41;5033346;28;20179;-83
2023/08/14 10:30:46;;;;;;;3.83;3.53;;;;;;;31.77;69.46;99792.97;5035128;28;20515;-83
2023/08/14 10:33:13;;;;;;;5.32;3.42;;;;;;;31.78;69.27;99797.31;5035440;28;20029;-83
2023/08/14 10:35:55;;;;;;;4.80;4.20;;;;;;;31.65;68.31;99777.63;5035168;28;20025;-83
2023/08/14 10:38:24;;;;;;;4.35;3.88;;;;;;;31.66;68.66;99782.81;5017481;28;20082;-83
2023/08/14 10:40:54;;;;;;;3.72;3.40;;;;;;;31.63;68.72;99777.81;5034913;28;20025;-83
2023/08/14 10:43:29;;;;;;;4.30;3.90;;;;;;;31.66;69.09;99787.38;4973709;28;20077;-83
2023/08/14 10:45:54;;;;;;;4.20;3.80;;;;;;;31.57;68.41;99778.66;4973830;28;20098;-83
2023/08/14 10:48:20;;;;;;;4.35;4.05;;;;;;;31.59;69.22;99786.53;4973782;28;20047;-83
2023/08/14 10:50:58;;;;;;;4.93;4.43;;;;;;;31.61;69.65;99784.47;4973239;28;20059;-84
2023/08/14 10:53:23;;;;;;;4.47;4.07;;;;;;;31.52;70.01;99763.13;4973633;28;20050;-83
2023/08/14 10:55:48;;;;;;;4.53;4.13;;;;;;;31.76;70.61;99796.69;4972574;28;20075;-84
2023/08/14 10:58:31;;;;;;;4.22;3.80;;;;;;;31.79;69.38;99798.16;4973640;28;20437;-84
2023/08/14 11:01:04;;;;;;;4.57;4.10;;;;;;;31.68;68.23;99771.81;4973645;28;20109;-84
2023/08/14 11:03:33;;;;;;;4.47;3.75;;;;;;;31.70;67.40;99780.53;4973135;28;20042;-84
2023/08/14 11:05:59;;;;;;;4.63;4.22;;;;;;;31.62;69.06;99778.03;4973507;28;20041;-84
2023/08/14 11:08:28;;;;;;;3.65;3.38;;;;;;;31.58;69.32;99774.94;4973320;28;20039;-84
2023/08/14 11:10:54;;;;;;;4.70;4.00;;;;;;;31.57;68.67;99785.91;4973257;28;20058;-84
2023/08/14 11:13:19;;;;;;;3.83;3.45;;;;;;;31.29;67.34;99778.78;4978555;28;20035;-84
2023/08/14 11:15:45;;;;;;;4.60;3.60;;;;;;;31.15;68.45;99787.84;5016589;28;20029;-83
2023/08/14 11:18:10;;;;;;;4.05;3.65;;;;;;;31.03;68.68;99777.66;5034459;28;20380;-84
2023/08/14 11:20:37;;;;;;;5.38;4.53;;;;;;;31.15;67.49;99798.59;5016354;28;20037;-84
2023/08/14 11:23:04;;;;;;;4.32;3.92;;;;;;;31.15;68.40;99802.13;5034669;28;20033;-83
2023/08/14 11:25:30;;;;;;;3.72;3.42;;;;;;;31.03;68.82;99782.19;5034439;28;20025;-84